sensor_id;sensor_type;location;lat;lon;timestamp;P1;durP1;ratioP1;P2;durP2;ratioP2
70532;SDS011;58088;51.186;17.130;2022-08-04T00:00:18;20.10;;;9.70;;
70532;SDS011;58088;51.186;17.130;2022-08-04T00:10:58;16.90;;;8.40;;
70532;SDS011;58088;51.186;17.130;2022-08-04T00:13:27;14.10;;;9.30;;
70532;SDS011;58088;51.186;17.130;2022-08-04T00:15:58;14.10;;;9.50;;
70532;SDS011;58088;51.186;17.130;2022-08-04T00:18:53;15.50;;;9.70;;
70532;SDS011;58088;51.186;17.130;2022-08-04T00:21:27;14.50;;;9.70;;
70532;SDS011;58088;51.186;17.130;2022-08-04T00:23:54;12.90;;;9.60;;
70532;SDS011;58088;51.186;17.130;2022-08-04T00:26:21;15.30;;;9.50;;
70532;SDS011;58088;51.186;17.130;2022-08-04T00:28:47;13.00;;;9.30;;
70532;SDS011;58088;51.186;17.130;2022-08-04T00:31:14;15.40;;;9.50;;
70532;SDS011;58088;51.186;17.130;2022-08-04T00:33:44;16.70;;;9.00;;
70532;SDS011;58088;51.186;17.130;2022-08-04T00:36:12;21.80;;;9.30;;
70532;SDS011;58088;51.186;17.130;2022-08-04T00:38:42;12.10;;;8.70;;
70532;SDS011;58088;51.186;17.130;2022-08-04T00:59:19;13.50;;;10.10;;
70532;SDS011;58088;51.186;17.130;2022-08-04T01:15:56;15.40;;;10.60;;
70532;SDS011;58088;51.186;17.130;2022-08-04T01:18:56;13.90;;;10.20;;
70532;SDS011;58088;51.186;17.130;2022-08-04T01:30:01;15.60;;;10.40;;
70532;SDS011;58088;51.186;17.130;2022-08-04T01:32:37;15.30;;;11.10;;
70532;SDS011;58088;51.186;17.130;2022-08-04T01:35:28;14.50;;;10.90;;
70532;SDS011;58088;51.186;17.130;2022-08-04T01:40:38;15.80;;;10.90;;
70532;SDS011;58088;51.186;17.130;2022-08-04T01:43:08;17.50;;;10.60;;
70532;SDS011;58088;51.186;17.130;2022-08-04T01:45:36;15.20;;;11.30;;
70532;SDS011;58088;51.186;17.130;2022-08-04T01:48:03;13.80;;;10.40;;
70532;SDS011;58088;51.186;17.130;2022-08-04T01:50:36;19.20;;;11.10;;
70532;SDS011;58088;51.186;17.130;2022-08-04T01:53:04;16.30;;;11.00;;
70532;SDS011;58088;51.186;17.130;2022-08-04T01:55:31;14.80;;;9.60;;
70532;SDS011;58088;51.186;17.130;2022-08-04T01:57:59;16.10;;;10.70;;
70532;SDS011;58088;51.186;17.130;2022-08-04T02:00:28;16.40;;;10.90;;
70532;SDS011;58088;51.186;17.130;2022-08-04T02:02:55;17.10;;;10.60;;
70532;SDS011;58088;51.186;17.130;2022-08-04T02:05:24;15.80;;;9.60;;
70532;SDS011;58088;51.186;17.130;2022-08-04T02:08:03;15.80;;;10.60;;
70532;SDS011;58088;51.186;17.130;2022-08-04T02:13:22;15.90;;;11.10;;
70532;SDS011;58088;51.186;17.130;2022-08-04T02:16:03;16.80;;;11.00;;
70532;SDS011;58088;51.186;17.130;2022-08-04T02:21:35;15.90;;;10.60;;
70532;SDS011;58088;51.186;17.130;2022-08-04T02:24:07;17.50;;;11.90;;
70532;SDS011;58088;51.186;17.130;2022-08-04T02:26:41;19.20;;;11.20;;
70532;SDS011;58088;51.186;17.130;2022-08-04T02:32:26;19.40;;;11.10;;
70532;SDS011;58088;51.186;17.130;2022-08-04T02:35:12;15.40;;;10.00;;
70532;SDS011;58088;51.186;17.130;2022-08-04T02:37:47;16.30;;;9.90;;
70532;SDS011;58088;51.186;17.130;2022-08-04T02:40:19;15.20;;;9.70;;
70532;SDS011;58088;51.186;17.130;2022-08-04T02:42:49;17.20;;;10.90;;
70532;SDS011;58088;51.186;17.130;2022-08-04T02:45:18;16.30;;;11.90;;
70532;SDS011;58088;51.186;17.130;2022-08-04T02:47:49;18.30;;;11.50;;
70532;SDS011;58088;51.186;17.130;2022-08-04T02:50:19;17.90;;;11.40;;
70532;SDS011;58088;51.186;17.130;2022-08-04T02:52:47;16.40;;;11.50;;
70532;SDS011;58088;51.186;17.130;2022-08-04T02:55:17;19.50;;;11.20;;
70532;SDS011;58088;51.186;17.130;2022-08-04T02:57:46;16.80;;;11.70;;
70532;SDS011;58088;51.186;17.130;2022-08-04T03:00:15;16.80;;;11.10;;
70532;SDS011;58088;51.186;17.130;2022-08-04T03:29:46;18.60;;;12.00;;
70532;SDS011;58088;51.186;17.130;2022-08-04T03:48:31;18.70;;;12.10;;
70532;SDS011;58088;51.186;17.130;2022-08-04T03:54:32;18.60;;;12.40;;
70532;SDS011;58088;51.186;17.130;2022-08-04T04:00:19;16.90;;;12.50;;
70532;SDS011;58088;51.186;17.130;2022-08-04T04:13:55;16.60;;;12.20;;
70532;SDS011;58088;51.186;17.130;2022-08-04T04:16:55;18.40;;;12.70;;
70532;SDS011;58088;51.186;17.130;2022-08-04T04:26:31;17.60;;;12.20;;
70532;SDS011;58088;51.186;17.130;2022-08-04T04:38:02;16.60;;;11.80;;
70532;SDS011;58088;51.186;17.130;2022-08-04T04:41:10;19.90;;;12.70;;
70532;SDS011;58088;51.186;17.130;2022-08-04T04:53:08;17.10;;;12.60;;
70532;SDS011;58088;51.186;17.130;2022-08-04T04:55:50;16.20;;;13.30;;
70532;SDS011;58088;51.186;17.130;2022-08-04T04:58:21;15.30;;;13.20;;
70532;SDS011;58088;51.186;17.130;2022-08-04T05:04:28;17.60;;;13.80;;
70532;SDS011;58088;51.186;17.130;2022-08-04T05:10:21;15.10;;;12.80;;
70532;SDS011;58088;51.186;17.130;2022-08-04T05:13:41;13.30;;;11.80;;
70532;SDS011;58088;51.186;17.130;2022-08-04T05:16:25;16.10;;;11.70;;
70532;SDS011;58088;51.186;17.130;2022-08-04T05:24:03;15.80;;;11.60;;
70532;SDS011;58088;51.186;17.130;2022-08-04T05:26:38;14.30;;;10.90;;
70532;SDS011;58088;51.186;17.130;2022-08-04T05:29:12;14.60;;;11.50;;
70532;SDS011;58088;51.186;17.130;2022-08-04T05:31:50;17.90;;;11.60;;
70532;SDS011;58088;51.186;17.130;2022-08-04T05:34:26;15.00;;;10.40;;
70532;SDS011;58088;51.186;17.130;2022-08-04T05:36:59;15.30;;;12.00;;
70532;SDS011;58088;51.186;17.130;2022-08-04T05:39:31;14.30;;;11.00;;
70532;SDS011;58088;51.186;17.130;2022-08-04T05:42:10;16.20;;;11.00;;
70532;SDS011;58088;51.186;17.130;2022-08-04T05:44:37;16.60;;;10.90;;
70532;SDS011;58088;51.186;17.130;2022-08-04T05:47:06;16.10;;;10.50;;
70532;SDS011;58088;51.186;17.130;2022-08-04T05:49:34;15.00;;;10.50;;
70532;SDS011;58088;51.186;17.130;2022-08-04T05:52:03;15.50;;;9.90;;
70532;SDS011;58088;51.186;17.130;2022-08-04T05:54:33;13.90;;;10.70;;
70532;SDS011;58088;51.186;17.130;2022-08-04T05:57:06;14.50;;;10.80;;
70532;SDS011;58088;51.186;17.130;2022-08-04T05:59:36;15.20;;;10.80;;
70532;SDS011;58088;51.186;17.130;2022-08-04T06:02:04;17.10;;;11.20;;
70532;SDS011;58088;51.186;17.130;2022-08-04T06:04:37;16.00;;;10.10;;
70532;SDS011;58088;51.186;17.130;2022-08-04T06:07:06;15.30;;;11.60;;
70532;SDS011;58088;51.186;17.130;2022-08-04T06:09:33;15.50;;;10.60;;
70532;SDS011;58088;51.186;17.130;2022-08-04T06:12:02;14.50;;;11.30;;
70532;SDS011;58088;51.186;17.130;2022-08-04T06:14:44;13.40;;;10.70;;
70532;SDS011;58088;51.186;17.130;2022-08-04T06:17:49;17.30;;;11.40;;
70532;SDS011;58088;51.186;17.130;2022-08-04T06:20:24;16.30;;;9.80;;
70532;SDS011;58088;51.186;17.130;2022-08-04T06:22:59;14.70;;;11.00;;
70532;SDS011;58088;51.186;17.130;2022-08-04T06:25:38;14.90;;;10.60;;
70532;SDS011;58088;51.186;17.130;2022-08-04T06:28:19;13.40;;;10.10;;
70532;SDS011;58088;51.186;17.130;2022-08-04T06:30:49;13.00;;;9.90;;
70532;SDS011;58088;51.186;17.130;2022-08-04T06:33:22;14.00;;;10.80;;
70532;SDS011;58088;51.186;17.130;2022-08-04T06:36:14;16.10;;;10.50;;
70532;SDS011;58088;51.186;17.130;2022-08-04T06:38:46;14.30;;;10.30;;
70532;SDS011;58088;51.186;17.130;2022-08-04T06:41:17;12.60;;;10.20;;
70532;SDS011;58088;51.186;17.130;2022-08-04T06:43:49;13.70;;;9.40;;
70532;SDS011;58088;51.186;17.130;2022-08-04T06:46:20;12.80;;;9.40;;
70532;SDS011;58088;51.186;17.130;2022-08-04T06:48:52;12.20;;;10.00;;
70532;SDS011;58088;51.186;17.130;2022-08-04T06:51:23;12.50;;;9.50;;
70532;SDS011;58088;51.186;17.130;2022-08-04T06:53:51;15.80;;;9.70;;
70532;SDS011;58088;51.186;17.130;2022-08-04T06:56:18;12.00;;;9.60;;
70532;SDS011;58088;51.186;17.130;2022-08-04T06:58:46;12.00;;;9.80;;
70532;SDS011;58088;51.186;17.130;2022-08-04T07:01:17;14.00;;;9.80;;
70532;SDS011;58088;51.186;17.130;2022-08-04T07:03:45;11.90;;;9.90;;
70532;SDS011;58088;51.186;17.130;2022-08-04T07:06:12;12.20;;;10.00;;
70532;SDS011;58088;51.186;17.130;2022-08-04T07:08:39;11.50;;;9.20;;
70532;SDS011;58088;51.186;17.130;2022-08-04T07:11:07;13.10;;;9.40;;
70532;SDS011;58088;51.186;17.130;2022-08-04T07:13:34;12.30;;;10.40;;
70532;SDS011;58088;51.186;17.130;2022-08-04T07:16:03;13.50;;;9.40;;
70532;SDS011;58088;51.186;17.130;2022-08-04T07:18:31;12.90;;;9.40;;
70532;SDS011;58088;51.186;17.130;2022-08-04T07:20:57;10.40;;;7.70;;
70532;SDS011;58088;51.186;17.130;2022-08-04T07:23:25;11.00;;;8.90;;
70532;SDS011;58088;51.186;17.130;2022-08-04T07:25:56;12.70;;;9.20;;
70532;SDS011;58088;51.186;17.130;2022-08-04T07:28:26;12.80;;;8.80;;
70532;SDS011;58088;51.186;17.130;2022-08-04T07:30:56;11.10;;;8.50;;
70532;SDS011;58088;51.186;17.130;2022-08-04T07:33:23;14.70;;;8.90;;
70532;SDS011;58088;51.186;17.130;2022-08-04T07:35:53;14.10;;;8.40;;
70532;SDS011;58088;51.186;17.130;2022-08-04T07:38:21;13.90;;;9.20;;
70532;SDS011;58088;51.186;17.130;2022-08-04T07:40:47;10.00;;;8.80;;
70532;SDS011;58088;51.186;17.130;2022-08-04T07:43:15;12.10;;;8.60;;
70532;SDS011;58088;51.186;17.130;2022-08-04T07:45:42;13.70;;;9.20;;
70532;SDS011;58088;51.186;17.130;2022-08-04T07:48:10;12.80;;;9.40;;
70532;SDS011;58088;51.186;17.130;2022-08-04T07:50:37;11.00;;;9.10;;
70532;SDS011;58088;51.186;17.130;2022-08-04T07:53:08;14.10;;;9.00;;
70532;SDS011;58088;51.186;17.130;2022-08-04T07:55:34;11.70;;;9.30;;
70532;SDS011;58088;51.186;17.130;2022-08-04T07:58:00;12.50;;;8.90;;
70532;SDS011;58088;51.186;17.130;2022-08-04T08:00:26;11.60;;;9.20;;
70532;SDS011;58088;51.186;17.130;2022-08-04T08:02:54;10.90;;;8.70;;
70532;SDS011;58088;51.186;17.130;2022-08-04T08:05:21;11.80;;;8.80;;
70532;SDS011;58088;51.186;17.130;2022-08-04T08:07:49;11.50;;;8.90;;
70532;SDS011;58088;51.186;17.130;2022-08-04T08:10:16;10.40;;;8.20;;
70532;SDS011;58088;51.186;17.130;2022-08-04T08:12:43;14.30;;;8.50;;
70532;SDS011;58088;51.186;17.130;2022-08-04T08:15:11;12.00;;;9.00;;
70532;SDS011;58088;51.186;17.130;2022-08-04T08:17:38;11.50;;;9.20;;
70532;SDS011;58088;51.186;17.130;2022-08-04T08:20:08;11.20;;;8.80;;
70532;SDS011;58088;51.186;17.130;2022-08-04T08:22:36;9.90;;;8.30;;
70532;SDS011;58088;51.186;17.130;2022-08-04T08:25:06;13.10;;;8.90;;
70532;SDS011;58088;51.186;17.130;2022-08-04T08:27:33;11.70;;;9.40;;
70532;SDS011;58088;51.186;17.130;2022-08-04T08:30:02;10.50;;;8.80;;
70532;SDS011;58088;51.186;17.130;2022-08-04T08:32:29;13.70;;;10.00;;
70532;SDS011;58088;51.186;17.130;2022-08-04T08:34:55;9.40;;;8.30;;
70532;SDS011;58088;51.186;17.130;2022-08-04T08:37:33;12.40;;;9.90;;
70532;SDS011;58088;51.186;17.130;2022-08-04T08:41:22;13.30;;;10.00;;
70532;SDS011;58088;51.186;17.130;2022-08-04T08:43:34;11.60;;;9.30;;
70532;SDS011;58088;51.186;17.130;2022-08-04T08:46:46;11.30;;;10.00;;
70532;SDS011;58088;51.186;17.130;2022-08-04T08:49:46;11.80;;;9.90;;
70532;SDS011;58088;51.186;17.130;2022-08-04T08:52:29;12.10;;;10.10;;
70532;SDS011;58088;51.186;17.130;2022-08-04T09:01:19;15.40;;;10.00;;
70532;SDS011;58088;51.186;17.130;2022-08-04T09:10:16;12.70;;;9.00;;
70532;SDS011;58088;51.186;17.130;2022-08-04T09:12:55;11.60;;;8.30;;
70532;SDS011;58088;51.186;17.130;2022-08-04T09:15:43;9.00;;;7.80;;
70532;SDS011;58088;51.186;17.130;2022-08-04T09:21:58;9.60;;;7.30;;
70532;SDS011;58088;51.186;17.130;2022-08-04T09:27:12;13.80;;;8.20;;
70532;SDS011;58088;51.186;17.130;2022-08-04T09:30:07;13.20;;;8.00;;
70532;SDS011;58088;51.186;17.130;2022-08-04T09:35:32;13.20;;;7.30;;
70532;SDS011;58088;51.186;17.130;2022-08-04T09:41:32;9.30;;;7.70;;
70532;SDS011;58088;51.186;17.130;2022-08-04T09:44:22;11.10;;;7.20;;
70532;SDS011;58088;51.186;17.130;2022-08-04T09:47:23;9.10;;;7.60;;
70532;SDS011;58088;51.186;17.130;2022-08-04T09:50:06;10.20;;;8.10;;
70532;SDS011;58088;51.186;17.130;2022-08-04T10:01:24;9.20;;;8.10;;
70532;SDS011;58088;51.186;17.130;2022-08-04T10:03:59;10.80;;;8.70;;
70532;SDS011;58088;51.186;17.130;2022-08-04T10:18:39;9.00;;;7.40;;
70532;SDS011;58088;51.186;17.130;2022-08-04T10:21:41;11.60;;;7.80;;
70532;SDS011;58088;51.186;17.130;2022-08-04T10:24:41;10.70;;;7.80;;
70532;SDS011;58088;51.186;17.130;2022-08-04T10:27:35;9.00;;;7.00;;
70532;SDS011;58088;51.186;17.130;2022-08-04T10:30:09;12.10;;;7.90;;
70532;SDS011;58088;51.186;17.130;2022-08-04T10:32:48;9.10;;;7.10;;
70532;SDS011;58088;51.186;17.130;2022-08-04T10:35:20;9.00;;;8.00;;
70532;SDS011;58088;51.186;17.130;2022-08-04T10:38:09;8.90;;;7.30;;
70532;SDS011;58088;51.186;17.130;2022-08-04T10:48:53;9.20;;;7.20;;
70532;SDS011;58088;51.186;17.130;2022-08-04T10:58:06;9.40;;;6.80;;
70532;SDS011;58088;51.186;17.130;2022-08-04T11:00:40;9.30;;;7.20;;
70532;SDS011;58088;51.186;17.130;2022-08-04T11:06:23;11.00;;;7.60;;
70532;SDS011;58088;51.186;17.130;2022-08-04T11:08:53;8.50;;;7.20;;
70532;SDS011;58088;51.186;17.130;2022-08-04T11:11:36;9.70;;;7.00;;
70532;SDS011;58088;51.186;17.130;2022-08-04T11:14:18;7.50;;;5.90;;
70532;SDS011;58088;51.186;17.130;2022-08-04T11:16:53;7.00;;;5.50;;
70532;SDS011;58088;51.186;17.130;2022-08-04T11:30:39;9.50;;;6.10;;
70532;SDS011;58088;51.186;17.130;2022-08-04T11:33:43;9.20;;;6.70;;
70532;SDS011;58088;51.186;17.130;2022-08-04T11:41:55;7.70;;;6.10;;
70532;SDS011;58088;51.186;17.130;2022-08-04T11:44:28;7.50;;;5.20;;
70532;SDS011;58088;51.186;17.130;2022-08-04T11:47:08;6.50;;;5.20;;
70532;SDS011;58088;51.186;17.130;2022-08-04T11:49:57;8.10;;;6.70;;
70532;SDS011;58088;51.186;17.130;2022-08-04T11:52:31;9.90;;;6.50;;
70532;SDS011;58088;51.186;17.130;2022-08-04T11:55:02;9.90;;;7.50;;
70532;SDS011;58088;51.186;17.130;2022-08-04T11:57:31;7.90;;;6.40;;
70532;SDS011;58088;51.186;17.130;2022-08-04T11:59:59;9.00;;;6.80;;
70532;SDS011;58088;51.186;17.130;2022-08-04T12:03:07;9.30;;;6.70;;
70532;SDS011;58088;51.186;17.130;2022-08-04T12:08:50;9.10;;;7.80;;
70532;SDS011;58088;51.186;17.130;2022-08-04T12:18:09;8.60;;;7.20;;
70532;SDS011;58088;51.186;17.130;2022-08-04T12:20:54;9.30;;;7.90;;
70532;SDS011;58088;51.186;17.130;2022-08-04T12:23:57;8.60;;;7.70;;
70532;SDS011;58088;51.186;17.130;2022-08-04T12:26:33;10.70;;;8.20;;
70532;SDS011;58088;51.186;17.130;2022-08-04T12:29:04;10.60;;;8.90;;
70532;SDS011;58088;51.186;17.130;2022-08-04T12:31:37;10.50;;;8.30;;
70532;SDS011;58088;51.186;17.130;2022-08-04T12:37:13;9.30;;;8.30;;
70532;SDS011;58088;51.186;17.130;2022-08-04T12:39:44;12.20;;;8.00;;
70532;SDS011;58088;51.186;17.130;2022-08-04T12:42:26;8.70;;;7.50;;
70532;SDS011;58088;51.186;17.130;2022-08-04T12:45:06;9.80;;;7.60;;
70532;SDS011;58088;51.186;17.130;2022-08-04T12:47:35;9.30;;;8.00;;
70532;SDS011;58088;51.186;17.130;2022-08-04T12:50:04;9.40;;;7.30;;
70532;SDS011;58088;51.186;17.130;2022-08-04T12:52:46;9.50;;;6.60;;
70532;SDS011;58088;51.186;17.130;2022-08-04T12:55:16;8.60;;;6.60;;
70532;SDS011;58088;51.186;17.130;2022-08-04T12:57:45;7.30;;;6.30;;
70532;SDS011;58088;51.186;17.130;2022-08-04T13:00:28;8.00;;;6.30;;
70532;SDS011;58088;51.186;17.130;2022-08-04T13:03:08;8.80;;;6.10;;
70532;SDS011;58088;51.186;17.130;2022-08-04T13:05:39;8.90;;;5.70;;
70532;SDS011;58088;51.186;17.130;2022-08-04T13:08:08;7.60;;;5.50;;
70532;SDS011;58088;51.186;17.130;2022-08-04T13:10:38;7.30;;;6.00;;
70532;SDS011;58088;51.186;17.130;2022-08-04T13:13:13;6.80;;;5.70;;
70532;SDS011;58088;51.186;17.130;2022-08-04T13:15:42;7.70;;;5.50;;
70532;SDS011;58088;51.186;17.130;2022-08-04T13:18:19;7.10;;;5.20;;
70532;SDS011;58088;51.186;17.130;2022-08-04T13:20:47;7.20;;;5.50;;
70532;SDS011;58088;51.186;17.130;2022-08-04T13:23:17;7.90;;;5.20;;
70532;SDS011;58088;51.186;17.130;2022-08-04T13:25:47;7.50;;;5.70;;
70532;SDS011;58088;51.186;17.130;2022-08-04T13:28:20;6.90;;;5.60;;
70532;SDS011;58088;51.186;17.130;2022-08-04T13:30:54;9.70;;;4.50;;
70532;SDS011;58088;51.186;17.130;2022-08-04T13:33:33;6.70;;;4.40;;
70532;SDS011;58088;51.186;17.130;2022-08-04T13:36:04;5.60;;;4.10;;
70532;SDS011;58088;51.186;17.130;2022-08-04T13:38:34;7.30;;;4.10;;
70532;SDS011;58088;51.186;17.130;2022-08-04T13:41:05;8.90;;;4.50;;
70532;SDS011;58088;51.186;17.130;2022-08-04T13:43:40;6.70;;;4.20;;
70532;SDS011;58088;51.186;17.130;2022-08-04T13:46:15;6.70;;;4.30;;
70532;SDS011;58088;51.186;17.130;2022-08-04T13:48:45;5.90;;;4.50;;
70532;SDS011;58088;51.186;17.130;2022-08-04T13:51:16;7.80;;;4.30;;
70532;SDS011;58088;51.186;17.130;2022-08-04T13:53:54;5.80;;;4.30;;
70532;SDS011;58088;51.186;17.130;2022-08-04T13:56:23;6.80;;;4.50;;
70532;SDS011;58088;51.186;17.130;2022-08-04T13:58:56;5.20;;;4.20;;
70532;SDS011;58088;51.186;17.130;2022-08-04T14:01:26;6.30;;;4.40;;
70532;SDS011;58088;51.186;17.130;2022-08-04T14:06:28;6.90;;;5.20;;
70532;SDS011;58088;51.186;17.130;2022-08-04T14:11:52;11.20;;;6.00;;
70532;SDS011;58088;51.186;17.130;2022-08-04T14:14:22;9.80;;;5.80;;
70532;SDS011;58088;51.186;17.130;2022-08-04T14:17:09;8.20;;;5.90;;
70532;SDS011;58088;51.186;17.130;2022-08-04T14:20:00;7.70;;;5.70;;
70532;SDS011;58088;51.186;17.130;2022-08-04T14:22:30;9.50;;;6.10;;
70532;SDS011;58088;51.186;17.130;2022-08-04T14:25:13;6.30;;;5.20;;
70532;SDS011;58088;51.186;17.130;2022-08-04T14:27:52;7.90;;;6.00;;
70532;SDS011;58088;51.186;17.130;2022-08-04T14:30:35;6.60;;;5.50;;
70532;SDS011;58088;51.186;17.130;2022-08-04T14:33:10;7.30;;;5.60;;
70532;SDS011;58088;51.186;17.130;2022-08-04T14:35:37;9.00;;;6.20;;
70532;SDS011;58088;51.186;17.130;2022-08-04T14:38:09;8.00;;;6.20;;
70532;SDS011;58088;51.186;17.130;2022-08-04T14:40:41;8.70;;;6.40;;
70532;SDS011;58088;51.186;17.130;2022-08-04T14:43:08;10.20;;;6.80;;
70532;SDS011;58088;51.186;17.130;2022-08-04T14:45:38;8.40;;;6.10;;
70532;SDS011;58088;51.186;17.130;2022-08-04T14:48:09;10.70;;;6.50;;
70532;SDS011;58088;51.186;17.130;2022-08-04T14:53:12;9.70;;;6.20;;
70532;SDS011;58088;51.186;17.130;2022-08-04T14:55:46;8.40;;;6.80;;
70532;SDS011;58088;51.186;17.130;2022-08-04T15:00:59;9.50;;;6.10;;
70532;SDS011;58088;51.186;17.130;2022-08-04T15:03:28;8.10;;;6.30;;
70532;SDS011;58088;51.186;17.130;2022-08-04T15:05:59;9.00;;;6.70;;
70532;SDS011;58088;51.186;17.130;2022-08-04T15:08:26;8.70;;;7.00;;
70532;SDS011;58088;51.186;17.130;2022-08-04T15:10:56;7.80;;;6.40;;
70532;SDS011;58088;51.186;17.130;2022-08-04T15:13:25;9.80;;;7.00;;
70532;SDS011;58088;51.186;17.130;2022-08-04T15:15:52;10.00;;;6.70;;
70532;SDS011;58088;51.186;17.130;2022-08-04T15:18:19;8.40;;;6.40;;
70532;SDS011;58088;51.186;17.130;2022-08-04T15:20:46;9.40;;;6.80;;
70532;SDS011;58088;51.186;17.130;2022-08-04T15:23:14;9.60;;;6.40;;
70532;SDS011;58088;51.186;17.130;2022-08-04T15:25:44;9.00;;;6.10;;
70532;SDS011;58088;51.186;17.130;2022-08-04T15:28:18;8.30;;;6.50;;
70532;SDS011;58088;51.186;17.130;2022-08-04T15:30:48;8.00;;;6.50;;
70532;SDS011;58088;51.186;17.130;2022-08-04T15:33:18;7.80;;;5.90;;
70532;SDS011;58088;51.186;17.130;2022-08-04T15:36:12;8.40;;;6.80;;
70532;SDS011;58088;51.186;17.130;2022-08-04T15:39:11;8.40;;;7.10;;
70532;SDS011;58088;51.186;17.130;2022-08-04T15:41:59;11.40;;;7.10;;
70532;SDS011;58088;51.186;17.130;2022-08-04T15:45:41;10.70;;;6.70;;
70532;SDS011;58088;51.186;17.130;2022-08-04T15:47:39;9.50;;;6.70;;
70532;SDS011;58088;51.186;17.130;2022-08-04T15:50:07;8.80;;;6.80;;
70532;SDS011;58088;51.186;17.130;2022-08-04T15:53:02;12.30;;;7.20;;
70532;SDS011;58088;51.186;17.130;2022-08-04T15:55:40;9.20;;;6.70;;
70532;SDS011;58088;51.186;17.130;2022-08-04T15:58:12;10.00;;;7.20;;
70532;SDS011;58088;51.186;17.130;2022-08-04T16:22:12;8.60;;;6.90;;
70532;SDS011;58088;51.186;17.130;2022-08-04T16:25:01;11.90;;;7.20;;
70532;SDS011;58088;51.186;17.130;2022-08-04T16:27:41;13.30;;;7.20;;
70532;SDS011;58088;51.186;17.130;2022-08-04T16:30:13;10.30;;;7.00;;
70532;SDS011;58088;51.186;17.130;2022-08-04T16:32:42;10.60;;;7.50;;
70532;SDS011;58088;51.186;17.130;2022-08-04T16:35:25;12.20;;;7.60;;
70532;SDS011;58088;51.186;17.130;2022-08-04T16:38:13;10.80;;;7.10;;
70532;SDS011;58088;51.186;17.130;2022-08-04T16:40:42;11.80;;;7.70;;
70532;SDS011;58088;51.186;17.130;2022-08-04T16:43:14;10.20;;;7.70;;
70532;SDS011;58088;51.186;17.130;2022-08-04T16:48:15;12.20;;;7.80;;
70532;SDS011;58088;51.186;17.130;2022-08-04T16:51:10;10.80;;;7.60;;
70532;SDS011;58088;51.186;17.130;2022-08-04T16:53:40;9.20;;;7.20;;
70532;SDS011;58088;51.186;17.130;2022-08-04T16:56:10;9.00;;;6.70;;
70532;SDS011;58088;51.186;17.130;2022-08-04T16:58:44;8.80;;;6.80;;
70532;SDS011;58088;51.186;17.130;2022-08-04T17:01:14;10.00;;;7.30;;
70532;SDS011;58088;51.186;17.130;2022-08-04T17:03:50;8.00;;;6.70;;
70532;SDS011;58088;51.186;17.130;2022-08-04T17:06:17;11.50;;;7.50;;
70532;SDS011;58088;51.186;17.130;2022-08-04T17:08:44;10.20;;;6.90;;
70532;SDS011;58088;51.186;17.130;2022-08-04T17:11:12;11.60;;;6.70;;
70532;SDS011;58088;51.186;17.130;2022-08-04T17:13:44;9.40;;;6.50;;
70532;SDS011;58088;51.186;17.130;2022-08-04T17:16:14;9.40;;;7.00;;
70532;SDS011;58088;51.186;17.130;2022-08-04T17:18:47;10.30;;;6.90;;
70532;SDS011;58088;51.186;17.130;2022-08-04T17:21:18;9.20;;;7.20;;
70532;SDS011;58088;51.186;17.130;2022-08-04T17:23:54;9.40;;;7.00;;
70532;SDS011;58088;51.186;17.130;2022-08-04T17:26:24;9.20;;;6.90;;
70532;SDS011;58088;51.186;17.130;2022-08-04T17:28:56;12.10;;;7.30;;
70532;SDS011;58088;51.186;17.130;2022-08-04T17:31:25;10.80;;;7.40;;
70532;SDS011;58088;51.186;17.130;2022-08-04T17:33:55;10.40;;;7.30;;
70532;SDS011;58088;51.186;17.130;2022-08-04T17:36:30;10.60;;;7.40;;
70532;SDS011;58088;51.186;17.130;2022-08-04T17:38:59;11.90;;;7.50;;
70532;SDS011;58088;51.186;17.130;2022-08-04T17:41:29;9.30;;;6.70;;
70532;SDS011;58088;51.186;17.130;2022-08-04T17:43:58;9.90;;;7.20;;
70532;SDS011;58088;51.186;17.130;2022-08-04T17:46:38;11.10;;;7.00;;
70532;SDS011;58088;51.186;17.130;2022-08-04T17:54:28;11.90;;;7.00;;
70532;SDS011;58088;51.186;17.130;2022-08-04T17:56:58;8.20;;;6.90;;
70532;SDS011;58088;51.186;17.130;2022-08-04T17:59:56;12.20;;;7.30;;
70532;SDS011;58088;51.186;17.130;2022-08-04T18:02:30;15.50;;;7.70;;
70532;SDS011;58088;51.186;17.130;2022-08-04T18:04:58;9.30;;;7.30;;
70532;SDS011;58088;51.186;17.130;2022-08-04T18:07:36;9.00;;;7.30;;
70532;SDS011;58088;51.186;17.130;2022-08-04T18:10:09;10.20;;;7.90;;
70532;SDS011;58088;51.186;17.130;2022-08-04T18:12:36;10.10;;;7.70;;
70532;SDS011;58088;51.186;17.130;2022-08-04T18:15:22;11.10;;;7.50;;
70532;SDS011;58088;51.186;17.130;2022-08-04T18:17:57;10.70;;;7.90;;
70532;SDS011;58088;51.186;17.130;2022-08-04T18:20:24;11.20;;;7.50;;
70532;SDS011;58088;51.186;17.130;2022-08-04T18:22:52;9.50;;;7.40;;
70532;SDS011;58088;51.186;17.130;2022-08-04T18:25:19;12.20;;;8.10;;
70532;SDS011;58088;51.186;17.130;2022-08-04T18:27:51;10.80;;;7.50;;
70532;SDS011;58088;51.186;17.130;2022-08-04T18:30:21;9.90;;;7.70;;
70532;SDS011;58088;51.186;17.130;2022-08-04T18:32:50;14.20;;;7.90;;
70532;SDS011;58088;51.186;17.130;2022-08-04T18:35:19;12.20;;;8.00;;
70532;SDS011;58088;51.186;17.130;2022-08-04T18:37:46;9.10;;;7.40;;
70532;SDS011;58088;51.186;17.130;2022-08-04T18:40:15;12.70;;;8.00;;
70532;SDS011;58088;51.186;17.130;2022-08-04T18:42:42;14.50;;;8.20;;
70532;SDS011;58088;51.186;17.130;2022-08-04T18:45:08;11.00;;;7.80;;
70532;SDS011;58088;51.186;17.130;2022-08-04T18:47:36;12.30;;;7.40;;
70532;SDS011;58088;51.186;17.130;2022-08-04T18:50:03;12.50;;;7.60;;
70532;SDS011;58088;51.186;17.130;2022-08-04T18:52:29;12.40;;;7.80;;
70532;SDS011;58088;51.186;17.130;2022-08-04T18:54:56;10.60;;;8.40;;
70532;SDS011;58088;51.186;17.130;2022-08-04T18:57:24;12.10;;;7.90;;
70532;SDS011;58088;51.186;17.130;2022-08-04T18:59:56;11.40;;;7.70;;
70532;SDS011;58088;51.186;17.130;2022-08-04T19:02:23;10.00;;;7.70;;
70532;SDS011;58088;51.186;17.130;2022-08-04T19:04:50;11.10;;;7.80;;
70532;SDS011;58088;51.186;17.130;2022-08-04T19:07:17;12.00;;;8.00;;
70532;SDS011;58088;51.186;17.130;2022-08-04T19:09:46;13.80;;;8.70;;
70532;SDS011;58088;51.186;17.130;2022-08-04T19:12:13;13.60;;;8.20;;
70532;SDS011;58088;51.186;17.130;2022-08-04T19:14:39;10.40;;;8.30;;
70532;SDS011;58088;51.186;17.130;2022-08-04T19:17:06;14.00;;;8.50;;
70532;SDS011;58088;51.186;17.130;2022-08-04T19:19:32;11.90;;;8.10;;
70532;SDS011;58088;51.186;17.130;2022-08-04T19:21:58;11.00;;;7.80;;
70532;SDS011;58088;51.186;17.130;2022-08-04T19:24:25;10.60;;;8.10;;
70532;SDS011;58088;51.186;17.130;2022-08-04T19:26:52;13.00;;;8.90;;
70532;SDS011;58088;51.186;17.130;2022-08-04T19:29:19;11.60;;;8.10;;
70532;SDS011;58088;51.186;17.130;2022-08-04T19:31:46;15.50;;;8.20;;
70532;SDS011;58088;51.186;17.130;2022-08-04T19:34:12;15.80;;;8.20;;
70532;SDS011;58088;51.186;17.130;2022-08-04T19:36:38;13.20;;;8.50;;
70532;SDS011;58088;51.186;17.130;2022-08-04T19:39:07;10.20;;;7.90;;
70532;SDS011;58088;51.186;17.130;2022-08-04T19:41:34;12.60;;;8.30;;
70532;SDS011;58088;51.186;17.130;2022-08-04T19:44:03;12.70;;;8.20;;
70532;SDS011;58088;51.186;17.130;2022-08-04T19:46:31;11.90;;;7.60;;
70532;SDS011;58088;51.186;17.130;2022-08-04T19:48:58;11.90;;;8.00;;
70532;SDS011;58088;51.186;17.130;2022-08-04T19:51:26;10.30;;;7.70;;
70532;SDS011;58088;51.186;17.130;2022-08-04T19:53:57;12.70;;;7.90;;